Time;durP1;ratioP1;P1;durP2;ratioP2;P2;SDS_P1;SDS_P2;PMS_P1;PMS_P2;Temp;Humidity;BMP_temperature;BMP_pressure;BME280_temperature;BME280_humidity;BME280_pressure;Samples;Min_cycle;Max_cycle;Signal;HPM_P1;HPM_P2
2021/01/26 00:02:13;;;;;;;92.97;44.33;;;;;;;0.25;86.98;99728.38;1787775;80;21462;-79
2021/01/26 00:04:39;;;;;;;88.50;34.05;;;;;;;0.26;86.98;99736.61;1787436;80;22065;-78
2021/01/26 00:07:06;;;;;;;58.42;27.52;;;;;;;0.25;87.00;99738.87;1787471;80;21164;-77
2021/01/26 00:09:32;;;;;;;57.30;27.75;;;;;;;0.25;87.00;99729.69;1787563;80;21189;-78
2021/01/26 00:11:58;;;;;;;74.87;29.35;;;;;;;0.24;87.01;99730.67;1787679;80;21107;-78
2021/01/26 00:14:25;;;;;;;46.02;23.98;;;;;;;0.24;86.99;99738.53;1787557;80;21164;-77
2021/01/26 00:16:51;;;;;;;48.15;24.70;;;;;;;0.25;87.01;99741.97;1787593;80;21157;-78
2021/01/26 00:19:17;;;;;;;47.93;25.32;;;;;;;0.24;87.01;99742.47;1787656;80;21112;-78
2021/01/26 00:21:44;;;;;;;48.05;24.47;;;;;;;0.23;87.00;99742.10;1787529;80;21739;-78
2021/01/26 00:24:10;;;;;;;52.93;23.60;;;;;;;0.26;87.00;99741.02;1787759;80;21167;-78
2021/01/26 00:26:37;;;;;;;44.50;22.00;;;;;;;0.26;87.00;99744.48;1787484;80;21113;-79
2021/01/26 00:29:09;;;;;;;41.18;21.27;;;;;;;0.26;87.01;99744.48;1785745;79;21152;-79
2021/01/26 00:31:48;;;;;;;39.75;22.32;;;;;;;0.29;87.00;99738.98;1810786;78;22316;-79
2021/01/26 00:34:14;;;;;;;50.03;24.23;;;;;;;0.24;87.00;99748.19;1797687;79;21064;-78
2021/01/26 00:36:40;;;;;;;48.50;23.30;;;;;;;0.23;86.98;99751.28;1797118;79;21194;-79
2021/01/26 00:39:07;;;;;;;48.45;23.73;;;;;;;0.21;87.01;99751.86;1797597;79;21127;-79
2021/01/26 00:41:33;;;;;;;45.40;21.37;;;;;;;0.22;86.99;99753.53;1796941;79;21131;-79
2021/01/26 00:43:59;;;;;;;52.85;25.48;;;;;;;0.20;86.99;99752.83;1797230;79;21172;-78
2021/01/26 00:46:26;;;;;;;56.00;24.75;;;;;;;0.22;87.00;99761.40;1797467;79;21162;-79
2021/01/26 00:48:52;;;;;;;45.30;23.40;;;;;;;0.22;86.99;99753.53;1797553;79;21206;-79
2021/01/26 00:51:19;;;;;;;48.17;27.17;;;;;;;0.23;87.00;99756.52;1797384;79;21006;-78
2021/01/26 00:53:45;;;;;;;48.60;27.42;;;;;;;0.23;87.01;99761.77;1797485;79;21128;-78
2021/01/26 00:56:11;;;;;;;78.62;35.88;;;;;;;0.23;87.01;99760.45;1797129;79;21226;-79
2021/01/26 00:58:38;;;;;;;64.37;36.20;;;;;;;0.23;86.98;99762.23;1797221;79;21119;-79
2021/01/26 01:01:05;;;;;;;61.18;35.15;;;;;;;0.24;87.00;99759.51;1797363;79;21210;-79
2021/01/26 01:03:31;;;;;;;55.38;30.17;;;;;;;0.25;87.01;99761.16;1797349;79;21577;-79
2021/01/26 01:05:58;;;;;;;53.15;27.00;;;;;;;0.24;87.01;99769.16;1797363;79;21171;-79
2021/01/26 01:08:25;;;;;;;70.20;28.70;;;;;;;0.24;87.01;99763.44;1797479;79;21222;-79
2021/01/26 01:10:52;;;;;;;63.50;26.30;;;;;;;0.24;87.00;99762.13;1797319;79;21115;-79
2021/01/26 01:13:19;;;;;;;49.55;24.10;;;;;;;0.23;86.98;99760.45;1797452;79;22320;-79
2021/01/26 01:15:46;;;;;;;49.40;24.02;;;;;;;0.24;87.00;99764.75;1797257;79;21143;-79
2021/01/26 01:18:12;;;;;;;46.53;25.97;;;;;;;0.25;87.00;99758.53;1797392;79;21064;-79
2021/01/26 01:20:39;;;;;;;44.58;23.77;;;;;;;0.26;87.00;99756.28;1797336;79;21600;-78
2021/01/26 01:23:06;;;;;;;50.92;27.22;;;;;;;0.26;87.00;99756.75;1797488;79;21124;-79
2021/01/26 01:25:32;;;;;;;67.12;32.58;;;;;;;0.25;87.00;99751.14;1795496;79;21266;-79
2021/01/26 01:27:58;;;;;;;59.90;29.12;;;;;;;0.23;87.00;99756.52;1795253;80;21155;-79
2021/01/26 01:30:28;;;;;;;58.00;26.57;;;;;;;0.22;86.99;99749.59;1789431;80;21053;-79
2021/01/26 01:32:55;;;;;;;64.27;29.90;;;;;;;0.22;86.97;99754.84;1775678;80;21097;-79
2021/01/26 01:35:22;;;;;;;52.08;25.92;;;;;;;0.24;87.00;99755.58;1775945;80;21038;-78
2021/01/26 01:37:48;;;;;;;40.08;20.02;;;;;;;0.24;86.99;99755.58;1775930;80;21205;-78
2021/01/26 01:40:31;;;;;;;44.55;22.90;;;;;;;0.24;86.99;99751.64;1775564;80;21153;-78
2021/01/26 01:42:57;;;;;;;40.20;21.50;;;;;;;0.24;86.97;99748.19;1774990;80;21112;-79
2021/01/26 01:45:25;;;;;;;42.38;23.50;;;;;;;0.23;86.98;99752.59;1775066;80;21124;-79
2021/01/26 01:48:15;;;;;;;41.10;21.35;;;;;;;0.21;86.99;99751.86;1775251;80;21459;-79
2021/01/26 01:50:44;;;;;;;;;;;;;;;0.20;86.98;99751.99;1777605;80;21265;-78
2021/01/26 01:53:17;;;;;;;39.05;18.57;;;;;;;0.19;87.00;99756.40;1775129;80;20263;-78
2021/01/26 01:55:57;;;;;;;40.80;20.60;;;;;;;0.18;87.01;99761.28;1774456;80;21116;-79
2021/01/26 01:58:30;;;;;;;49.53;21.93;;;;;;;0.18;86.97;99757.34;1775025;80;21551;-79
2021/01/26 02:01:04;;;;;;;39.38;22.37;;;;;;;0.18;86.97;99757.34;1775132;80;21553;-79
2021/01/26 02:03:32;;;;;;;43.05;22.22;;;;;;;0.18;86.98;99759.13;1774966;80;21263;-79
2021/01/26 02:05:59;;;;;;;45.20;26.55;;;;;;;0.19;86.99;99759.02;1774932;80;21550;-78
2021/01/26 02:08:56;;;;;;;45.73;23.05;;;;;;;0.19;86.98;99753.78;1774994;80;21136;-79
2021/01/26 02:11:23;;;;;;;37.40;21.07;;;;;;;0.19;86.99;99761.64;1774851;80;21100;-79
2021/01/26 02:13:50;;;;;;;35.98;18.95;;;;;;;0.16;86.97;99761.05;1775139;80;21105;-79
2021/01/26 02:16:33;;;;;;;35.25;19.07;;;;;;;0.14;86.97;99765.09;1774870;80;22334;-79
2021/01/26 02:19:21;;;;;;;36.25;18.82;;;;;;;0.12;86.96;99765.70;1774893;80;21593;-79
2021/01/26 02:22:13;;;;;;;33.55;16.60;;;;;;;0.11;86.96;99758.77;1774941;80;21140;-79
2021/01/26 02:25:24;;;;;;;39.40;20.10;;;;;;;0.16;86.96;99761.89;1797836;77;23301;-79
2021/01/26 02:28:11;;;;;;;28.92;15.80;;;;;;;0.10;86.94;99766.30;1757777;81;21545;-78
2021/01/26 02:31:16;;;;;;;42.62;21.97;;;;;;;0.09;86.95;99759.86;1756638;80;22057;-78
2021/01/26 02:34:30;;;;;;;42.48;23.30;;;;;;;0.07;86.94;99767.83;1757356;81;21131;-78
2021/01/26 02:37:38;;;;;;;47.08;25.48;;;;;;;0.05;86.93;99766.28;1757400;81;21537;-79
2021/01/26 02:40:18;;;;;;;42.93;23.83;;;;;;;0.03;86.92;99765.11;1757287;81;21164;-79
2021/01/26 02:43:31;;;;;;;40.08;20.23;;;;;;;0.04;86.91;99781.17;1757364;81;21549;-79
2021/01/26 02:46:32;;;;;;;39.63;21.05;;;;;;;0.04;86.92;99773.31;1710638;83;21686;-79
2021/01/26 02:49:28;;;;;;;38.70;20.75;;;;;;;0.05;86.92;99782.02;1757389;81;21072;-79
2021/01/26 02:52:17;;;;;;;37.48;19.30;;;;;;;0.02;86.93;99785.72;1757210;81;21163;-79
2021/01/26 02:54:55;;;;;;;29.95;15.63;;;;;;;0.01;86.94;99785.34;1757670;81;21179;-79
2021/01/26 02:57:29;;;;;;;34.00;16.02;;;;;;;-0.01;86.94;99782.86;1756981;81;21856;-79
2021/01/26 03:00:21;;;;;;;30.72;15.40;;;;;;;-0.01;86.91;99788.58;1695538;84;21197;-79
2021/01/26 03:03:10;;;;;;;27.15;14.60;;;;;;;-0.03;86.92;99779.98;1703319;84;21582;-78
2021/01/26 03:05:47;;;;;;;32.00;17.35;;;;;;;-0.02;86.91;99790.83;1683333;84;21597;-79
2021/01/26 03:08:22;;;;;;;36.58;21.93;;;;;;;0.00;86.93;99790.25;1703285;84;21151;-78
2021/01/26 03:10:58;;;;;;;46.90;27.95;;;;;;;-0.01;86.91;99791.20;1703492;84;21061;-78
2021/01/26 03:13:26;;;;;;;43.02;28.15;;;;;;;-0.01;86.90;99789.89;1703269;84;21209;-78
2021/01/26 03:16:02;;;;;;;50.30;32.78;;;;;;;-0.02;86.91;99780.34;1703441;84;21131;-79
2021/01/26 03:18:34;;;;;;;38.78;20.68;;;;;;;-0.04;86.92;99787.03;1703317;84;21152;-78
2021/01/26 03:21:13;;;;;;;33.78;16.82;;;;;;;0.02;86.93;99790.12;1811379;78;22725;-78
2021/01/26 03:23:47;;;;;;;35.80;18.10;;;;;;;-0.04;86.91;99783.58;1798066;79;21100;-79
2021/01/26 03:26:18;;;;;;;32.25;17.60;;;;;;;-0.03;86.90;99790.46;1793198;80;21286;-79
2021/01/26 03:28:45;;;;;;;37.15;18.50;;;;;;;-0.02;86.90;99779.03;1795541;80;21187;-78
2021/01/26 03:31:14;;;;;;;32.73;16.80;;;;;;;-0.03;86.89;99774.73;1795386;80;21116;-79
2021/01/26 03:33:47;;;;;;;35.43;16.00;;;;;;;-0.02;86.89;99782.97;1795727;80;21112;-79
2021/01/26 03:36:14;;;;;;;30.97;16.97;;;;;;;-0.03;86.89;99783.91;1795508;80;21136;-78
2021/01/26 03:38:40;;;;;;;31.37;15.88;;;;;;;-0.04;86.89;99787.03;1795408;80;21549;-79
2021/01/26 03:41:07;;;;;;;30.88;17.45;;;;;;;-0.05;86.91;99789.76;1795670;80;21076;-79
2021/01/26 03:43:34;;;;;;;37.05;19.15;;;;;;;-0.06;86.88;99788.08;1795544;80;20993;-79
2021/01/26 03:46:25;;;;;;;34.83;18.67;;;;;;;-0.07;86.89;99782.00;1795465;80;21171;-79
2021/01/26 03:49:02;;;;;;;34.63;17.23;;;;;;;-0.05;86.89;99784.52;1795404;80;21160;-79
2021/01/26 03:52:00;;;;;;;43.25;24.85;;;;;;;-0.05;86.89;99789.76;1795507;80;21200;-79
2021/01/26 03:54:39;;;;;;;60.12;27.62;;;;;;;-0.06;86.89;99789.39;1795587;80;21080;-79
2021/01/26 03:57:40;;;;;;;64.27;32.08;;;;;;;-0.06;86.90;99790.70;1794608;80;21159;-79
2021/01/26 04:00:39;;;;;;;42.75;17.70;;;;;;;-0.05;86.91;99793.22;1795141;80;21179;-79
2021/01/26 04:03:26;;;;;;;38.80;19.70;;;;;;;-0.02;86.89;99800.00;1782477;80;21545;-79
2021/01/26 04:05:56;;;;;;;37.25;16.75;;;;;;;0.02;86.90;99805.38;1795517;80;22742;-79
2021/01/26 04:08:31;;;;;;;38.70;17.52;;;;;;;0.05;86.88;99806.44;1795598;80;21599;-79
2021/01/26 04:11:23;;;;;;;36.05;19.02;;;;;;;0.06;86.88;99810.73;1794634;80;21151;-79
2021/01/26 04:14:13;;;;;;;45.03;20.60;;;;;;;0.04;86.89;99807.38;1767243;80;21148;-79
2021/01/26 04:16:43;;;;;;;;;;;;;;;0.02;86.91;99809.30;1798197;80;21620;-79
2021/01/26 04:19:10;;;;;;;;;;;;;;;0.01;86.89;99805.00;1766796;80;22162;-78
2021/01/26 04:21:36;;;;;;;43.95;19.75;;;;;;;0.02;86.93;99805.38;1775230;80;20245;-79
2021/01/26 04:24:04;;;;;;;36.03;19.12;;;;;;;0.01;86.93;99810.25;1792733;79;21545;-79
2021/01/26 04:26:31;;;;;;;35.25;20.43;;;;;;;0.01;86.89;99797.14;1792676;80;21139;-79
2021/01/26 04:28:57;;;;;;;38.98;19.98;;;;;;;0.00;86.91;99804.16;1762162;80;21493;-79
2021/01/26 04:31:24;;;;;;;41.73;20.92;;;;;;;0.02;86.93;99807.99;1791589;80;21195;-79
2021/01/26 04:33:50;;;;;;;71.55;33.10;;;;;;;0.05;86.90;99809.06;1792142;80;21139;-79
2021/01/26 04:36:20;;;;;;;37.63;18.52;;;;;;;0.06;86.91;99813.36;1792064;80;21117;-79
2021/01/26 04:38:47;;;;;;;57.90;24.15;;;;;;;0.08;86.92;99815.38;1792342;80;27339;-79
2021/01/26 04:41:37;;;;;;;65.22;27.50;;;;;;;0.09;86.92;99817.52;1792265;80;21148;-78
2021/01/26 04:44:18;;;;;;;44.55;21.07;;;;;;;0.09;86.91;99814.43;1791760;80;21271;-80
2021/01/26 04:46:50;;;;;;;42.48;21.27;;;;;;;0.09;86.93;99818.36;1787591;80;21123;-80
2021/01/26 04:49:30;;;;;;;39.85;19.57;;;;;;;0.09;86.93;99820.98;1792139;80;21111;-79
2021/01/26 04:52:25;;;;;;;48.30;27.30;;;;;;;0.07;86.95;99817.63;1760588;80;21907;-79
2021/01/26 04:55:29;;;;;;;63.15;30.15;;;;;;;0.06;86.93;99813.36;1792428;80;21171;-79
2021/01/26 04:58:13;;;;;;;61.48;34.30;;;;;;;0.06;86.93;99815.98;1791629;80;21233;-79
2021/01/26 05:01:09;;;;;;;54.83;25.15;;;;;;;0.05;86.93;99819.55;1787888;80;21116;-79
2021/01/26 05:03:59;;;;;;;41.40;20.23;;;;;;;0.07;86.94;99825.49;1792299;80;21140;-79
2021/01/26 05:06:30;;;;;;;43.10;19.90;;;;;;;0.08;86.94;99820.61;1770985;80;21175;-79
2021/01/26 05:09:23;;;;;;;42.60;22.37;;;;;;;0.13;86.93;99819.80;1811456;78;22710;-79
2021/01/26 05:11:50;;;;;;;45.03;23.40;;;;;;;0.07;86.91;99816.31;1797551;79;21556;-79
2021/01/26 05:14:23;;;;;;;47.17;25.60;;;;;;;0.08;86.94;99815.38;1797629;79;22100;-79
2021/01/26 05:17:11;;;;;;;41.53;22.20;;;;;;;0.07;86.93;99820.25;1797416;79;21186;-79
2021/01/26 05:19:42;;;;;;;38.73;19.60;;;;;;;0.07;86.94;99820.25;1797256;79;21193;-79
2021/01/26 05:22:28;;;;;;;41.60;21.17;;;;;;;0.09;86.92;99816.21;1797395;79;21001;-79
2021/01/26 05:25:07;;;;;;;40.78;21.65;;;;;;;0.10;86.94;99825.28;1763101;79;21057;-79
2021/01/26 05:27:33;;;;;;;41.68;22.22;;;;;;;0.12;86.95;99824.67;1797241;79;22157;-79
2021/01/26 05:30:00;;;;;;;49.30;27.42;;;;;;;0.13;86.96;99827.67;1797404;79;21116;-79
2021/01/26 05:32:26;;;;;;;73.37;41.92;;;;;;;0.13;86.94;99822.89;1797224;79;21016;-79
2021/01/26 05:34:53;;;;;;;86.75;48.63;;;;;;;0.13;86.95;99827.67;1797270;79;21111;-79
2021/01/26 05:37:19;;;;;;;66.25;33.98;;;;;;;0.14;86.96;99824.06;1797287;79;21645;-79
2021/01/26 05:39:57;;;;;;;54.98;28.10;;;;;;;0.14;86.99;99830.63;1797147;79;21200;-79
2021/01/26 05:42:24;;;;;;;55.63;28.47;;;;;;;0.16;86.96;99831.36;1797336;79;21501;-79
2021/01/26 05:44:56;;;;;;;49.90;26.33;;;;;;;0.17;86.96;99836.97;1797196;79;21127;-79
2021/01/26 05:47:35;;;;;;;51.08;28.12;;;;;;;0.19;86.98;99845.53;1797434;79;21179;-80
2021/01/26 05:50:01;;;;;;;56.68;30.80;;;;;;;0.19;86.96;99842.91;1797235;79;21628;-79
2021/01/26 05:52:34;;;;;;;78.67;35.00;;;;;;;0.21;87.00;99844.92;1797011;79;21275;-79
2021/01/26 05:55:01;;;;;;;86.82;35.08;;;;;;;0.20;86.98;99845.91;1797389;79;21108;-80
2021/01/26 05:57:33;;;;;;;113.95;49.48;;;;;;;0.20;87.00;99841.97;1797214;79;21143;-79
2021/01/26 06:00:24;;;;;;;57.27;28.23;;;;;;;0.19;87.00;99838.98;1797340;79;21616;-80
2021/01/26 06:03:13;;;;;;;55.40;30.50;;;;;;;0.20;86.99;99844.59;1797135;79;21545;-80
2021/01/26 06:05:42;;;;;;;58.95;30.57;;;;;;;0.21;86.99;99841.00;1797321;79;21200;-80
2021/01/26 06:08:13;;;;;;;61.55;31.17;;;;;;;0.21;86.99;99842.30;1793453;79;21152;-79
2021/01/26 06:10:44;;;;;;;64.72;35.10;;;;;;;0.21;86.98;99848.86;1788345;80;21119;-79
2021/01/26 06:13:10;;;;;;;50.50;26.87;;;;;;;0.22;87.00;99853.63;1788708;80;21180;-79
2021/01/26 06:15:39;;;;;;;59.35;31.45;;;;;;;0.21;87.00;99852.80;1788506;80;21128;-80
2021/01/26 06:18:16;;;;;;;65.60;29.82;;;;;;;0.22;86.99;99857.56;1788748;80;21299;-79
2021/01/26 06:20:45;;;;;;;51.00;24.10;;;;;;;0.21;86.99;99863.28;1787872;80;21132;-79
2021/01/26 06:23:19;;;;;;;45.73;23.22;;;;;;;0.21;86.99;99867.21;1788041;80;21143;-80
2021/01/26 06:25:55;;;;;;;48.48;26.50;;;;;;;0.22;87.00;99864.95;1788081;80;21068;-79
2021/01/26 06:28:46;;;;;;;50.23;23.45;;;;;;;0.24;87.00;99876.19;1757497;80;21143;-80
2021/01/26 06:31:52;;;;;;;52.62;26.65;;;;;;;0.25;87.01;99880.45;1787995;80;21263;-79
2021/01/26 06:35:01;;;;;;;65.30;33.38;;;;;;;0.25;87.01;99884.38;1787721;80;21135;-79
2021/01/26 06:38:05;;;;;;;59.42;33.05;;;;;;;0.25;87.00;99877.83;1752985;81;21148;-79
2021/01/26 06:41:00;;;;;;;58.87;36.08;;;;;;;0.24;87.01;99882.73;1722968;83;21148;-79
2021/01/26 06:43:38;;;;;;;67.78;33.65;;;;;;;0.24;87.01;99884.05;1736974;82;21161;-79
2021/01/26 06:46:39;;;;;;;61.80;32.53;;;;;;;0.25;87.00;99890.09;1732196;82;21218;-79
2021/01/26 06:49:32;;;;;;;61.20;32.88;;;;;;;0.27;87.01;99895.61;1732036;82;21151;-79
2021/01/26 06:52:18;;;;;;;98.27;46.23;;;;;;;0.32;87.00;99896.08;1852721;77;22710;-79
2021/01/26 06:55:14;;;;;;;118.90;47.38;;;;;;;0.28;87.00;99896.45;1824888;78;21053;-79
2021/01/26 06:58:02;;;;;;;103.80;43.48;;;;;;;0.28;86.98;99897.25;1824525;78;21192;-79
2021/01/26 07:01:13;;;;;;;94.92;43.17;;;;;;;0.27;86.99;99900.85;1824554;78;20997;-79
2021/01/26 07:03:47;;;;;;;60.88;29.90;;;;;;;0.27;86.98;99902.63;1824930;78;21045;-79
2021/01/26 07:06:45;;;;;;;58.65;30.43;;;;;;;0.26;86.98;99903.11;1823141;78;21139;-79
2021/01/26 07:09:32;;;;;;;55.38;31.27;;;;;;;0.26;86.97;99899.17;1808188;78;21113;-79
2021/01/26 07:12:23;;;;;;;68.50;33.38;;;;;;;0.27;86.97;99911.34;1820943;77;21261;-79
2021/01/26 07:15:13;;;;;;;63.55;35.03;;;;;;;0.28;86.96;99906.94;1806785;78;21612;-79
2021/01/26 07:18:15;;;;;;;86.30;42.60;;;;;;;0.26;86.94;99904.41;1796534;78;21104;-79
2021/01/26 07:20:58;;;;;;;114.42;50.30;;;;;;;0.28;86.95;99905.62;1792285;80;21120;-79
2021/01/26 07:24:07;;;;;;;73.87;33.73;;;;;;;0.26;86.94;99905.73;1770344;78;21135;-79
2021/01/26 07:27:08;;;;;;;87.10;38.88;;;;;;;0.27;86.93;99906.09;1791617;78;21208;-79
2021/01/26 07:29:58;;;;;;;56.45;27.80;;;;;;;0.28;86.93;99910.37;1776071;78;21057;-79
2021/01/26 07:32:38;;;;;;;53.50;29.55;;;;;;;0.30;86.92;99911.10;1792134;80;23838;-79
2021/01/26 07:35:22;;;;;;;46.90;25.32;;;;;;;0.33;86.92;99916.11;1790617;80;21107;-79
2021/01/26 07:37:57;;;;;;;61.45;32.63;;;;;;;0.35;86.92;99916.81;1792045;80;21187;-79
2021/01/26 07:40:46;;;;;;;58.78;30.65;;;;;;;0.36;86.90;99915.87;1786402;79;22146;-79
2021/01/26 07:43:41;;;;;;;75.55;41.98;;;;;;;0.35;86.90;99918.13;1791156;80;28229;-79
2021/01/26 07:46:33;;;;;;;54.05;30.25;;;;;;;0.37;86.92;99918.86;1790630;80;21147;-79
2021/01/26 07:49:08;;;;;;;71.70;36.80;;;;;;;0.36;86.90;99921.11;1789119;80;21568;-79
2021/01/26 07:51:40;;;;;;;73.42;37.98;;;;;;;0.38;86.91;99921.85;1796042;79;21163;-79
2021/01/26 07:54:23;;;;;;;61.37;30.97;;;;;;;0.39;86.87;99917.41;1795704;79;21215;-79
2021/01/26 07:56:50;;;;;;;58.85;32.23;;;;;;;0.41;86.88;99922.09;1795662;79;21190;-79
2021/01/26 07:59:24;;;;;;;73.20;35.40;;;;;;;0.40;86.87;99920.41;1798172;79;21140;-79
2021/01/26 08:01:57;;;;;;;75.67;37.30;;;;;;;0.40;86.88;99926.48;1797644;79;21533;-79
2021/01/26 08:04:24;;;;;;;74.60;36.35;;;;;;;0.38;86.85;99924.47;1797706;79;21466;-79
2021/01/26 08:06:53;;;;;;;79.03;36.25;;;;;;;0.39;86.87;99932.67;1797381;79;21191;-79
2021/01/26 08:09:39;;;;;;;71.37;33.90;;;;;;;0.40;86.87;99926.48;1796285;79;21147;-79
2021/01/26 08:12:18;;;;;;;71.37;33.92;;;;;;;0.43;86.84;99932.81;1797563;79;21104;-79
2021/01/26 08:14:50;;;;;;;53.93;27.60;;;;;;;0.47;86.83;99930.78;1793553;79;21147;-79
2021/01/26 08:17:29;;;;;;;61.83;30.90;;;;;;;0.50;86.83;99932.70;1795332;79;21498;-79
2021/01/26 08:20:22;;;;;;;62.57;34.77;;;;;;;0.50;86.82;99932.70;1797300;79;21240;-79
2021/01/26 08:23:04;;;;;;;64.95;38.40;;;;;;;0.53;86.83;99936.05;1770341;79;21135;-79
2021/01/26 08:25:42;;;;;;;94.45;50.92;;;;;;;0.57;86.81;99938.78;1763313;80;21127;-79
2021/01/26 08:28:09;;;;;;;66.07;36.58;;;;;;;0.57;86.81;99940.92;1792460;80;21155;-79
2021/01/26 08:30:48;;;;;;;74.58;41.68;;;;;;;0.60;86.81;99943.31;1795105;80;21167;-79
2021/01/26 08:33:21;;;;;;;60.35;32.58;;;;;;;0.62;86.80;99941.89;1770494;79;22015;-79
2021/01/26 08:36:11;;;;;;;53.02;27.70;;;;;;;0.65;86.81;99939.87;1766493;80;21172;-79
2021/01/26 08:38:50;;;;;;;45.90;27.32;;;;;;;0.64;86.79;99944.75;1795634;79;21132;-79
2021/01/26 08:41:46;;;;;;;64.37;33.55;;;;;;;0.63;86.77;99953.59;1794432;79;21143;-79
2021/01/26 08:44:24;;;;;;;53.35;30.65;;;;;;;0.63;86.77;99954.06;1789758;79;21132;-80
2021/01/26 08:46:52;;;;;;;49.67;28.70;;;;;;;0.61;86.75;99956.80;1788793;80;21366;-80
2021/01/26 08:49:30;;;;;;;56.30;30.25;;;;;;;0.60;86.74;99954.31;1778188;80;21147;-80
2021/01/26 08:52:24;;;;;;;52.53;28.85;;;;;;;0.58;86.74;99953.57;1764937;81;21083;-80
2021/01/26 08:54:53;;;;;;;50.67;29.27;;;;;;;0.59;86.71;99950.00;1793850;79;21139;-79
2021/01/26 08:57:28;;;;;;;47.08;27.42;;;;;;;0.63;86.71;99956.69;1797189;79;21720;-79
2021/01/26 09:00:34;;;;;;;48.73;30.17;;;;;;;0.63;86.71;99954.06;1796801;79;22125;-79
2021/01/26 09:03:01;;;;;;;64.72;37.05;;;;;;;0.63;86.68;99954.91;1796303;79;21163;-79
2021/01/26 09:05:47;;;;;;;58.75;34.55;;;;;;;0.62;86.67;99968.13;1741640;79;21604;-79
2021/01/26 09:08:35;;;;;;;67.32;31.60;;;;;;;0.57;86.65;99972.88;1795419;79;21558;-79
2021/01/26 09:11:01;;;;;;;59.70;31.12;;;;;;;0.54;86.62;99973.12;1795510;79;21115;-79
2021/01/26 09:13:32;;;;;;;59.98;29.65;;;;;;;0.52;86.63;99970.63;1781430;79;21301;-79
2021/01/26 09:16:03;;;;;;;52.17;27.48;;;;;;;0.50;86.59;99977.29;1768266;79;21131;-79
2021/01/26 09:18:29;;;;;;;56.60;27.25;;;;;;;0.49;86.57;99978.23;1769083;79;21131;-79
2021/01/26 09:21:03;;;;;;;51.75;28.75;;;;;;;0.55;86.57;99977.42;1797099;79;21125;-80
2021/01/26 09:23:30;;;;;;;45.52;27.55;;;;;;;0.55;86.54;99975.64;1796593;79;21204;-80
2021/01/26 09:25:56;;;;;;;56.80;31.48;;;;;;;0.55;86.54;99980.05;1795540;79;21317;-80
2021/01/26 09:28:23;;;;;;;47.62;27.02;;;;;;;0.55;86.51;99985.29;1795954;79;21580;-80
2021/01/26 09:31:00;;;;;;;52.98;30.50;;;;;;;0.55;86.50;99983.51;1797089;79;21132;-79
2021/01/26 09:33:29;;;;;;;47.48;26.77;;;;;;;0.54;86.48;99982.30;1796934;79;21556;-80
2021/01/26 09:36:09;;;;;;;39.65;25.97;;;;;;;0.55;86.46;99986.13;1794731;79;21529;-80
2021/01/26 09:38:45;;;;;;;56.85;31.35;;;;;;;0.56;86.42;99985.66;1793026;78;21246;-80
2021/01/26 09:41:27;;;;;;;58.20;31.55;;;;;;;0.63;86.43;99989.48;1794166;79;21143;-80
2021/01/26 09:44:07;;;;;;;43.83;26.77;;;;;;;0.62;86.40;99987.81;1795772;79;21162;-79
2021/01/26 09:46:42;;;;;;;50.83;28.83;;;;;;;0.61;86.40;99986.13;1781252;79;21119;-80
2021/01/26 09:49:15;;;;;;;51.33;28.07;;;;;;;0.60;86.38;99988.41;1797214;79;21591;-79
2021/01/26 09:51:47;;;;;;;53.60;28.50;;;;;;;0.61;86.36;99988.75;1786764;79;21128;-80
2021/01/26 09:54:22;;;;;;;44.95;26.07;;;;;;;0.63;86.34;99994.73;1777875;80;21338;-80
2021/01/26 09:56:48;;;;;;;45.63;26.12;;;;;;;0.62;86.31;99987.34;1777436;80;21628;-82
2021/01/26 09:59:15;;;;;;;43.20;23.92;;;;;;;0.65;86.29;99983.63;1777833;80;21111;-79
2021/01/26 10:01:42;;;;;;;52.30;27.58;;;;;;;0.70;86.26;99986.75;1773465;80;21115;-79
2021/01/26 10:04:09;;;;;;;55.58;30.82;;;;;;;0.74;86.25;99990.82;1789551;78;21248;-78
2021/01/26 10:06:36;;;;;;;63.33;33.83;;;;;;;0.77;86.22;99990.58;1785601;80;21574;-78
2021/01/26 10:09:28;;;;;;;53.80;28.92;;;;;;;0.80;86.20;99992.97;1780193;80;21163;-79
2021/01/26 10:11:55;;;;;;;79.10;46.13;;;;;;;0.88;86.20;99990.59;1769510;80;21108;-79
2021/01/26 10:14:24;;;;;;;51.20;28.50;;;;;;;0.92;86.18;99998.56;1773126;80;21168;-79
2021/01/26 10:16:59;;;;;;;58.23;30.83;;;;;;;0.93;86.12;99998.92;1791773;80;21586;-79
2021/01/26 10:19:29;;;;;;;42.95;23.90;;;;;;;0.92;86.08;100001.19;1785474;80;21124;-80
2021/01/26 10:22:10;;;;;;;48.00;27.25;;;;;;;0.94;86.07;100000.61;1782567;80;21108;-80
2021/01/26 10:24:37;;;;;;;41.73;23.85;;;;;;;1.02;86.04;99998.23;1784429;80;21113;-81
2021/01/26 10:27:13;;;;;;;38.28;23.90;;;;;;;1.10;86.01;99999.77;1760623;80;21044;-80
2021/01/26 10:29:42;;;;;;;42.65;25.00;;;;;;;1.12;85.97;99993.93;1763892;80;21278;-79
2021/01/26 10:32:12;;;;;;;38.33;23.75;;;;;;;1.14;85.95;99997.26;1779392;79;21136;-79
2021/01/26 10:34:43;;;;;;;44.35;24.12;;;;;;;1.19;85.92;99992.50;1774119;80;21159;-78
2021/01/26 10:37:28;;;;;;;46.35;22.80;;;;;;;1.20;85.88;99994.14;1783023;80;21120;-78
2021/01/26 10:43:04;;;;;;;53.28;29.60;;;;;;;1.18;85.77;99991.29;1657613;83;21587;-78
2021/01/26 10:45:50;;;;;;;37.50;22.80;;;;;;;1.24;85.73;99994.73;1676999;85;21627;-78
2021/01/26 10:48:23;;;;;;;49.85;25.60;;;;;;;1.23;85.65;99995.21;1698026;84;21183;-78
2021/01/26 10:50:51;;;;;;;69.15;36.65;;;;;;;1.24;85.61;99998.20;1687495;83;21591;-78
2021/01/26 10:53:41;;;;;;;58.20;31.20;;;;;;;1.28;85.57;99994.38;1701847;84;21234;-78
2021/01/26 10:56:08;;;;;;;40.67;23.30;;;;;;;1.32;85.50;99997.13;1684975;83;22224;-78
2021/01/26 10:58:34;;;;;;;38.90;22.15;;;;;;;1.30;85.45;100000.34;1680108;84;21108;-79
2021/01/26 11:01:01;;;;;;;44.95;25.48;;;;;;;1.26;85.41;99995.47;1707280;83;21165;-78
2021/01/26 11:03:27;;;;;;;41.40;23.60;;;;;;;1.23;85.36;99995.72;1730464;82;21605;-79
2021/01/26 11:05:54;;;;;;;39.83;23.18;;;;;;;1.23;85.30;99987.84;1734306;82;21503;-79
2021/01/26 11:08:20;;;;;;;44.65;25.57;;;;;;;1.16;85.23;99992.71;1734705;82;21208;-80
2021/01/26 11:10:47;;;;;;;40.20;23.15;;;;;;;1.06;85.19;99991.77;1734417;82;21141;-79
2021/01/26 11:13:14;;;;;;;44.50;23.42;;;;;;;0.95;85.09;99989.16;1734337;82;21550;-80
2021/01/26 11:15:41;;;;;;;40.90;23.55;;;;;;;0.93;85.06;99993.67;1734539;82;21125;-79
2021/01/26 11:18:08;;;;;;;36.45;22.30;;;;;;;1.03;85.04;99989.38;1734265;82;21574;-78
2021/01/26 11:20:35;;;;;;;42.48;28.12;;;;;;;1.14;84.98;99989.38;1734406;82;22133;-79
2021/01/26 11:23:01;;;;;;;43.23;26.50;;;;;;;1.28;84.96;99994.38;1734285;82;21172;-78
2021/01/26 11:25:28;;;;;;;48.30;27.10;;;;;;;1.47;84.91;99991.98;1734288;82;21221;-78
2021/01/26 11:27:54;;;;;;;47.78;27.77;;;;;;;1.58;84.84;99992.91;1734376;82;21566;-79
2021/01/26 11:30:24;;;;;;;45.58;24.30;;;;;;;1.64;84.80;99992.41;1734572;82;21109;-78
2021/01/26 11:32:52;;;;;;;48.20;27.30;;;;;;;1.69;84.76;99990.27;1735335;82;21539;-78
2021/01/26 11:35:20;;;;;;;53.35;26.20;;;;;;;1.69;84.71;99992.39;1733626;82;21169;-78
2021/01/26 11:37:47;;;;;;;48.70;25.37;;;;;;;1.71;84.68;99992.28;1734567;82;21192;-78
2021/01/26 11:40:14;;;;;;;41.20;23.30;;;;;;;1.72;84.63;99997.90;1734432;82;21551;-78
2021/01/26 11:42:41;;;;;;;43.85;22.15;;;;;;;1.74;84.59;99990.71;1719948;82;21608;-79
2021/01/26 11:45:10;;;;;;;44.03;23.98;;;;;;;1.79;84.53;99996.44;1716347;83;21987;-78
2021/01/26 11:47:36;;;;;;;48.57;23.60;;;;;;;1.82;84.48;99990.94;1694693;83;21259;-79
2021/01/26 11:50:05;;;;;;;38.05;21.25;;;;;;;1.86;84.45;99983.16;1716352;83;21132;-78
2021/01/26 11:52:31;;;;;;;36.98;21.02;;;;;;;1.90;84.37;99988.53;1716397;83;21176;-78
2021/01/26 11:54:58;;;;;;;32.13;19.42;;;;;;;1.95;84.32;99989.81;1716541;83;21132;-78
2021/01/26 11:57:24;;;;;;;48.17;28.42;;;;;;;2.01;84.26;99984.52;1716351;83;21478;-79
2021/01/26 11:59:50;;;;;;;38.30;23.25;;;;;;;2.11;84.18;99987.25;1716374;83;21160;-79
2021/01/26 12:02:17;;;;;;;47.25;27.85;;;;;;;2.23;84.10;99985.73;1716329;83;21181;-79
2021/01/26 12:04:43;;;;;;;43.63;22.60;;;;;;;2.29;84.05;99989.17;1716490;83;21179;-79
2021/01/26 12:07:09;;;;;;;39.30;21.05;;;;;;;2.26;83.94;99984.16;1716432;83;21184;-79
2021/01/26 12:09:36;;;;;;;33.80;18.98;;;;;;;2.18;83.88;99985.27;1716564;83;22171;-79